Time;durP1;ratioP1;P1;durP2;ratioP2;P2;SDS_P1;SDS_P2;PMS_P1;PMS_P2;Temp;Humidity;BMP_temperature;BMP_pressure;BME280_temperature;BME280_humidity;BME280_pressure;Samples;Min_cycle;Max_cycle;Signal;HPM_P1;HPM_P2
2024/04/01 00:00:31;;;;;;;38.40;7.85;;;17.20;96.70;;;;;;5064050;28;20180;-71
2024/04/01 00:03:01;;;;;;;41.28;8.45;;;17.20;96.70;;;;;;5040207;28;20049;-71
2024/04/01 00:05:29;;;;;;;34.75;6.68;;;17.10;96.70;;;;;;5056870;28;20077;-71
2024/04/01 00:07:59;;;;;;;39.75;8.65;;;17.10;96.70;;;;;;5048979;28;20077;-71
2024/04/01 00:10:30;;;;;;;35.85;7.25;;;17.20;96.70;;;;;;5068251;28;20547;-71
2024/04/01 00:12:59;;;;;;;36.03;7.10;;;17.20;96.70;;;;;;5067186;28;20052;-72
2024/04/01 00:15:29;;;;;;;32.33;6.45;;;17.20;96.70;;;;;;5051064;28;20111;-71
2024/04/01 00:17:57;;;;;;;40.42;8.25;;;17.30;96.70;;;;;;5050904;28;20040;-70
2024/04/01 00:20:26;;;;;;;38.38;6.55;;;17.30;96.70;;;;;;5068096;28;20040;-71
2024/04/01 00:22:53;;;;;;;38.42;8.48;;;17.20;96.70;;;;;;5060886;28;20385;-71
2024/04/01 00:25:22;;;;;;;41.50;7.53;;;17.20;96.70;;;;;;5065737;28;20569;-71
2024/04/01 00:27:51;;;;;;;40.75;8.02;;;17.10;96.70;;;;;;5059791;28;20059;-71
2024/04/01 00:30:22;;;;;;;36.30;7.53;;;17.10;96.70;;;;;;5067329;28;20044;-71
2024/04/01 00:32:52;;;;;;;40.97;7.95;;;17.00;96.70;;;;;;5050565;28;20048;-71
2024/04/01 00:35:19;;;;;;;36.92;7.88;;;16.90;96.70;;;;;;5066370;28;20051;-71
2024/04/01 00:37:47;;;;;;;38.45;8.15;;;16.90;96.70;;;;;;5066347;28;20056;-71
2024/04/01 00:40:15;;;;;;;30.75;6.80;;;16.80;96.70;;;;;;5050513;28;20059;-71
2024/04/01 00:42:44;;;;;;;45.13;7.95;;;16.80;96.70;;;;;;5066363;28;20507;-71
2024/04/01 00:45:14;;;;;;;42.63;7.32;;;16.80;96.70;;;;;;5066401;28;20044;-71
2024/04/01 00:47:43;;;;;;;42.35;8.15;;;16.80;96.70;;;;;;5066936;28;20041;-71
2024/04/01 00:50:13;;;;;;;38.22;8.30;;;16.90;96.70;;;;;;5049375;28;20472;-71
2024/04/01 00:52:43;;;;;;;39.90;8.18;;;16.90;96.70;;;;;;5065715;28;20072;-71
2024/04/01 00:55:11;;;;;;;40.30;7.97;;;16.90;96.70;;;;;;5041802;28;20060;-71
2024/04/01 00:57:38;;;;;;;38.78;7.15;;;17.00;96.70;;;;;;5060703;28;20046;-71
2024/04/01 01:00:10;;;;;;;42.95;7.78;;;17.00;96.70;;;;;;5067002;28;20154;-71
2024/04/01 01:02:37;;;;;;;44.20;8.02;;;17.00;96.70;;;;;;5082990;28;20109;-71
2024/04/01 01:05:07;;;;;;;41.92;8.77;;;17.00;96.70;;;;;;5060436;28;20132;-72
2024/04/01 01:07:37;;;;;;;43.55;9.18;;;17.00;96.70;;;;;;5066002;28;20052;-71
2024/04/01 01:10:07;;;;;;;35.58;7.45;;;17.00;96.70;;;;;;5049701;28;20038;-71
2024/04/01 01:12:34;;;;;;;35.97;7.65;;;17.00;96.70;;;;;;5044656;28;20103;-71
2024/04/01 01:15:07;;;;;;;43.38;8.60;;;17.10;96.70;;;;;;5063715;28;20501;-71
2024/04/01 01:17:39;;;;;;;39.33;7.43;;;17.10;96.70;;;;;;5065365;28;20115;-71
2024/04/01 01:20:11;;;;;;;33.00;7.78;;;17.10;96.70;;;;;;5040612;28;20464;-71
2024/04/01 01:22:43;;;;;;;49.42;7.40;;;17.20;96.70;;;;;;5065751;28;20032;-71
2024/04/01 01:25:11;;;;;;;45.35;8.75;;;17.20;96.70;;;;;;5049026;28;20048;-71
2024/04/01 01:27:39;;;;;;;39.63;6.82;;;17.20;96.70;;;;;;5053588;28;20041;-70
2024/04/01 01:30:17;;;;;;;44.08;7.90;;;17.10;96.70;;;;;;5054922;28;20040;-71
2024/04/01 01:32:47;;;;;;;29.83;6.65;;;17.10;96.70;;;;;;5082459;28;20039;-72
2024/04/01 01:35:20;;;;;;;32.45;6.32;;;17.10;96.70;;;;;;5084139;28;20042;-70
2024/04/01 01:37:50;;;;;;;37.00;7.18;;;17.00;96.70;;;;;;5072303;28;20143;-71
2024/04/01 01:40:18;;;;;;;33.80;6.40;;;16.90;96.70;;;;;;5071749;28;20040;-71
2024/04/01 01:42:51;;;;;;;38.42;7.57;;;17.00;96.70;;;;;;5081403;28;20101;-70
2024/04/01 01:45:20;;;;;;;34.85;6.70;;;17.00;96.70;;;;;;5087243;28;20134;-71
2024/04/01 01:47:49;;;;;;;36.80;8.75;;;17.00;96.70;;;;;;5081813;28;20460;-71
2024/04/01 01:50:16;;;;;;;27.73;6.03;;;17.00;96.70;;;;;;5088747;28;20040;-72
2024/04/01 01:52:45;;;;;;;30.85;7.03;;;16.90;96.70;;;;;;5088962;28;20553;-70
2024/04/01 01:55:16;;;;;;;39.72;7.47;;;16.90;96.70;;;;;;5080610;28;20035;-71
2024/04/01 01:57:45;;;;;;;36.50;7.03;;;16.90;96.70;;;;;;5071669;28;20048;-71
2024/04/01 02:00:14;;;;;;;35.95;7.00;;;16.90;96.70;;;;;;5089422;28;20136;-72
2024/04/01 02:02:41;;;;;;;37.85;8.40;;;16.90;96.70;;;;;;5088171;28;20053;-71
2024/04/01 02:05:09;;;;;;;33.92;7.60;;;17.00;96.70;;;;;;5088283;28;20127;-71
2024/04/01 02:07:37;;;;;;;40.17;7.47;;;17.00;96.70;;;;;;5088688;28;20044;-71
2024/04/01 02:10:05;;;;;;;39.33;6.75;;;16.90;96.70;;;;;;5088840;28;20050;-71
2024/04/01 02:12:34;;;;;;;45.15;7.45;;;16.90;96.70;;;;;;5082940;28;20088;-71
2024/04/01 02:15:04;;;;;;;37.90;7.07;;;16.80;96.70;;;;;;5087796;28;20051;-71
2024/04/01 02:17:32;;;;;;;37.53;7.90;;;16.80;96.70;;;;;;5088719;28;20130;-71
2024/04/01 02:20:11;;;;;;;42.97;8.52;;;16.90;96.70;;;;;;5087581;28;20568;-71
2024/04/01 02:22:40;;;;;;;43.35;8.80;;;16.80;96.70;;;;;;5065517;28;20044;-71
2024/04/01 02:25:11;;;;;;;38.80;7.57;;;16.80;96.70;;;;;;5071742;28;20039;-71
2024/04/01 02:27:41;;;;;;;37.15;7.70;;;16.80;96.70;;;;;;5071147;28;20043;-71
2024/04/01 02:30:10;;;;;;;41.92;8.18;;;16.80;96.70;;;;;;5087128;28;20062;-70
2024/04/01 02:32:38;;;;;;;43.42;8.98;;;16.80;96.70;;;;;;5087759;28;20036;-71
2024/04/01 02:35:07;;;;;;;37.60;7.80;;;16.80;96.70;;;;;;5071302;28;20491;-71
2024/04/01 02:37:36;;;;;;;35.90;8.75;;;16.90;96.70;;;;;;5083620;28;20059;-70
2024/04/01 02:40:10;;;;;;;43.15;8.77;;;16.80;96.70;;;;;;5085262;28;20097;-72
2024/04/01 02:42:37;;;;;;;36.47;7.50;;;16.60;96.70;;;;;;5081198;28;20043;-71
2024/04/01 02:45:08;;;;;;;48.47;8.88;;;16.50;96.70;;;;;;5087974;28;20043;-72
2024/04/01 02:47:36;;;;;;;35.20;7.00;;;16.40;96.70;;;;;;5086107;28;20052;-71
2024/04/01 02:50:05;;;;;;;40.58;6.63;;;16.40;96.70;;;;;;5088014;28;20047;-72
2024/04/01 02:52:33;;;;;;;40.63;6.88;;;16.50;96.70;;;;;;5087918;28;20151;-71
2024/04/01 02:55:01;;;;;;;34.90;8.32;;;16.60;96.70;;;;;;5071262;28;20567;-70
2024/04/01 02:57:29;;;;;;;42.63;7.18;;;16.60;96.70;;;;;;5069646;28;20358;-72
2024/04/01 02:59:58;;;;;;;45.65;8.50;;;16.60;96.70;;;;;;5071921;28;20047;-72
2024/04/01 03:02:28;;;;;;;41.28;9.35;;;16.60;96.70;;;;;;5086948;28;20033;-71
2024/04/01 03:04:56;;;;;;;39.85;7.97;;;16.60;96.70;;;;;;5087253;28;20095;-72
2024/04/01 03:07:24;;;;;;;41.05;8.65;;;16.60;96.70;;;;;;5069535;28;20043;-72
2024/04/01 03:09:56;;;;;;;39.45;8.55;;;16.70;96.70;;;;;;5087257;28;20063;-71
2024/04/01 03:12:27;;;;;;;43.92;9.45;;;16.70;96.70;;;;;;5082964;28;20079;-71
2024/04/01 03:14:56;;;;;;;46.55;8.27;;;16.70;96.70;;;;;;5088256;28;20079;-72
2024/04/01 03:17:24;;;;;;;41.35;7.82;;;16.70;96.70;;;;;;5070038;28;20039;-71
2024/04/01 03:19:53;;;;;;;39.72;7.95;;;16.70;96.70;;;;;;5086922;28;20153;-72
2024/04/01 03:22:20;;;;;;;49.67;10.63;;;16.80;96.70;;;;;;5086623;28;20047;-72
2024/04/01 03:24:51;;;;;;;51.92;9.55;;;16.80;96.70;;;;;;5078979;28;20044;-69
2024/04/01 03:27:18;;;;;;;42.88;7.85;;;16.80;96.70;;;;;;5087349;28;20040;-69
2024/04/01 03:29:47;;;;;;;51.40;8.52;;;16.80;96.70;;;;;;5087573;28;20511;-69
2024/04/01 03:32:16;;;;;;;43.40;8.82;;;16.60;96.70;;;;;;5086909;28;20043;-68
2024/04/01 03:34:46;;;;;;;51.95;8.52;;;16.40;96.70;;;;;;5087410;28;20134;-70
2024/04/01 03:37:16;;;;;;;35.47;8.32;;;16.30;96.70;;;;;;5084389;28;20047;-70
2024/04/01 03:39:45;;;;;;;41.13;7.95;;;16.20;96.70;;;;;;5087756;28;20436;-69
2024/04/01 03:42:13;;;;;;;36.47;7.53;;;16.20;96.70;;;;;;5086947;28;20039;-69
2024/04/01 03:44:42;;;;;;;47.33;8.30;;;16.10;96.70;;;;;;5090942;28;20458;-69
2024/04/01 03:47:11;;;;;;;46.53;8.07;;;16.20;96.70;;;;;;5091241;28;20134;-69
2024/04/01 03:49:41;;;;;;;46.28;9.02;;;16.30;96.70;;;;;;5091098;28;20054;-69
2024/04/01 03:52:09;;;;;;;45.50;8.45;;;16.30;96.70;;;;;;5072615;28;20181;-69
2024/04/01 03:54:38;;;;;;;57.75;9.27;;;16.40;96.70;;;;;;5085926;28;20092;-69
2024/04/01 03:57:07;;;;;;;45.15;8.50;;;16.30;96.70;;;;;;5091170;28;20071;-69
2024/04/01 03:59:34;;;;;;;42.00;7.95;;;16.20;96.70;;;;;;5091553;28;20092;-70
2024/04/01 04:02:06;;;;;;;49.53;9.18;;;16.10;96.70;;;;;;5089060;28;20512;-69
2024/04/01 04:04:34;;;;;;;49.35;8.30;;;16.20;96.70;;;;;;5083724;28;20052;-69
2024/04/01 04:07:03;;;;;;;41.55;7.82;;;16.10;96.70;;;;;;5091261;28;20530;-69
2024/04/01 04:09:30;;;;;;;35.05;6.90;;;16.10;96.70;;;;;;5090929;28;20035;-69
2024/04/01 04:12:00;;;;;;;46.75;8.43;;;16.10;96.70;;;;;;5073500;28;20047;-69
2024/04/01 04:14:27;;;;;;;35.53;7.82;;;16.10;96.70;;;;;;5089678;28;20063;-69
2024/04/01 04:16:55;;;;;;;51.90;9.60;;;16.10;96.70;;;;;;5090334;28;20408;-69
2024/04/01 04:19:25;;;;;;;42.97;9.23;;;16.10;96.70;;;;;;5090378;28;20028;-69
2024/04/01 04:21:55;;;;;;;45.05;8.52;;;16.00;96.70;;;;;;5073772;28;20039;-69
2024/04/01 04:24:24;;;;;;;39.38;7.60;;;16.00;96.70;;;;;;5090153;28;20045;-69
2024/04/01 04:26:52;;;;;;;34.42;7.25;;;15.90;96.70;;;;;;5090300;28;20523;-69
2024/04/01 04:29:21;;;;;;;43.55;8.98;;;16.00;96.70;;;;;;5090474;28;20155;-70
2024/04/01 04:31:57;;;;;;;56.92;8.98;;;16.10;96.70;;;;;;5073424;28;20051;-69
2024/04/01 04:34:26;;;;;;;45.80;7.63;;;15.90;96.70;;;;;;5090457;28;20082;-70
2024/04/01 04:36:55;;;;;;;44.08;9.93;;;15.70;96.70;;;;;;5090408;28;20256;-69
2024/04/01 04:39:27;;;;;;;42.10;8.05;;;15.70;96.70;;;;;;5072242;28;20047;-70
2024/04/01 04:41:56;;;;;;;37.92;7.60;;;15.70;96.70;;;;;;5065561;28;20142;-69
2024/04/01 04:44:28;;;;;;;38.25;6.88;;;15.70;96.70;;;;;;5073111;28;20130;-69
2024/04/01 04:46:58;;;;;;;44.00;7.95;;;15.70;96.70;;;;;;5090044;28;20051;-68
2024/04/01 04:49:28;;;;;;;47.60;9.15;;;15.80;96.70;;;;;;5087875;28;20039;-69
2024/04/01 04:51:56;;;;;;;42.28;8.43;;;15.70;96.70;;;;;;5089846;28;20065;-68
2024/04/01 04:54:24;;;;;;;40.20;7.85;;;15.90;96.70;;;;;;5081448;28;20047;-70
2024/04/01 04:56:52;;;;;;;50.65;9.40;;;16.00;96.70;;;;;;5090499;28;20040;-69
2024/04/01 04:59:19;;;;;;;45.92;9.50;;;16.00;96.70;;;;;;5086980;28;20048;-69
2024/04/01 05:01:49;;;;;;;41.45;8.82;;;15.90;96.70;;;;;;5072764;28;20051;-69
2024/04/01 05:04:17;;;;;;;48.25;8.60;;;15.90;96.70;;;;;;5072241;28;20051;-69
2024/04/01 05:06:45;;;;;;;51.42;8.98;;;16.00;96.70;;;;;;5072183;28;20058;-69
2024/04/01 05:09:15;;;;;;;42.55;8.85;;;16.00;96.70;;;;;;5073140;28;20085;-69
2024/04/01 05:11:44;;;;;;;48.67;9.55;;;16.00;96.70;;;;;;5089930;28;20039;-69
2024/04/01 05:14:12;;;;;;;48.25;8.73;;;15.90;96.70;;;;;;5089919;28;20063;-68
2024/04/01 05:16:39;;;;;;;43.88;8.38;;;15.90;96.70;;;;;;5088929;28;20040;-69
2024/04/01 05:19:09;;;;;;;50.92;8.95;;;15.90;96.70;;;;;;5088757;28;20070;-69
2024/04/01 05:21:38;;;;;;;44.17;9.13;;;15.90;96.70;;;;;;5089600;28;20040;-69
2024/04/01 05:24:07;;;;;;;51.22;9.40;;;15.80;96.70;;;;;;5089798;28;20047;-69
2024/04/01 05:26:36;;;;;;;53.03;9.30;;;15.80;96.70;;;;;;5080488;28;20059;-69
2024/04/01 05:29:04;;;;;;;52.58;9.77;;;15.70;96.70;;;;;;5087754;28;20069;-69
2024/04/01 05:31:32;;;;;;;50.55;8.30;;;15.60;96.70;;;;;;5088652;28;20043;-69
2024/04/01 05:34:01;;;;;;;34.80;7.13;;;15.60;96.70;;;;;;5072149;28;20069;-70
2024/04/01 05:36:32;;;;;;;22.05;4.05;;;15.50;96.70;;;;;;5089272;28;20092;-71
2024/04/01 05:39:03;;;;;;;10.05;2.50;;;15.30;96.70;;;;;;5089574;28;20511;-70
2024/04/01 05:41:32;;;;;;;19.58;2.95;;;15.10;96.70;;;;;;5086975;28;20043;-71
2024/04/01 05:44:00;;;;;;;12.10;2.67;;;15.00;96.70;;;;;;5088884;28;20071;-71
2024/04/01 05:46:28;;;;;;;8.85;1.92;;;14.90;96.70;;;;;;5087885;28;20044;-71
2024/04/01 05:48:55;;;;;;;7.82;1.30;;;14.80;96.70;;;;;;5055177;28;20063;-71
2024/04/01 05:51:23;;;;;;;6.18;1.00;;;14.60;96.70;;;;;;5089595;28;20055;-70
2024/04/01 05:53:53;;;;;;;4.07;1.08;;;14.60;96.70;;;;;;5073264;28;20050;-71
2024/04/01 05:56:22;;;;;;;8.15;1.33;;;14.50;96.70;;;;;;5072087;28;20134;-71
2024/04/01 05:58:50;;;;;;;4.88;1.20;;;14.50;96.70;;;;;;5088376;28;20169;-71
2024/04/01 06:01:18;;;;;;;6.15;0.90;;;14.40;96.70;;;;;;5087983;28;20040;-72
2024/04/01 06:03:47;;;;;;;4.50;0.70;;;14.40;96.70;;;;;;5089467;28;20511;-71
2024/04/01 06:06:15;;;;;;;3.83;0.73;;;14.30;96.70;;;;;;5085018;28;20074;-72
2024/04/01 06:08:43;;;;;;;5.32;0.70;;;14.30;96.70;;;;;;5087878;28;20039;-71
2024/04/01 06:11:13;;;;;;;5.25;0.70;;;14.20;96.70;;;;;;5088061;28;20043;-71
2024/04/01 06:13:44;;;;;;;4.07;0.60;;;14.30;96.70;;;;;;5082612;28;20092;-72
2024/04/01 06:16:13;;;;;;;2.72;0.50;;;14.30;96.70;;;;;;5088140;28;20126;-72
2024/04/01 06:18:42;;;;;;;3.50;0.40;;;14.50;96.70;;;;;;5071351;28;20040;-72
2024/04/01 06:21:10;;;;;;;3.30;0.47;;;14.70;96.70;;;;;;5071510;28;20055;-71
2024/04/01 06:23:38;;;;;;;4.40;0.50;;;14.90;96.70;;;;;;5087101;28;20635;-71
2024/04/01 06:26:06;;;;;;;2.05;0.57;;;14.90;96.70;;;;;;5087748;28;20543;-72
2024/04/01 06:28:36;;;;;;;4.15;0.65;;;14.80;96.70;;;;;;5087961;28;20062;-71
2024/04/01 06:31:04;;;;;;;4.18;0.60;;;14.80;96.70;;;;;;5088109;28;20080;-71
2024/04/01 06:33:35;;;;;;;3.03;0.65;;;14.90;96.70;;;;;;5087726;28;20039;-70
2024/04/01 06:36:04;;;;;;;2.35;0.52;;;15.00;96.70;;;;;;5085650;28;20053;-72
2024/04/01 06:38:35;;;;;;;2.35;0.50;;;15.10;96.70;;;;;;5088339;28;20074;-71
2024/04/01 06:41:06;;;;;;;3.50;0.57;;;15.20;96.70;;;;;;5087654;28;20051;-72
2024/04/01 06:43:35;;;;;;;3.65;0.45;;;15.10;96.70;;;;;;5086328;28;20040;-71
2024/04/01 06:46:04;;;;;;;2.83;0.40;;;15.20;96.70;;;;;;5067695;28;20134;-72
2024/04/01 06:48:34;;;;;;;8.23;0.60;;;15.30;96.70;;;;;;5070748;28;20528;-71
2024/04/01 06:51:02;;;;;;;2.88;0.90;;;15.40;96.70;;;;;;5088298;28;20567;-71
2024/04/01 06:53:29;;;;;;;2.50;0.60;;;15.50;96.70;;;;;;5088007;28;20663;-72
2024/04/01 06:55:57;;;;;;;3.92;0.70;;;15.40;96.70;;;;;;5067491;28;20131;-70
2024/04/01 06:58:25;;;;;;;4.55;0.80;;;15.50;96.70;;;;;;5071516;28;20511;-72
2024/04/01 07:00:55;;;;;;;3.45;0.80;;;15.50;96.70;;;;;;5086725;28;20063;-71
2024/04/01 07:03:23;;;;;;;3.25;1.17;;;15.50;96.70;;;;;;5083933;28;20069;-72
2024/04/01 07:05:50;;;;;;;4.68;1.20;;;15.50;96.70;;;;;;5062924;28;20051;-71
2024/04/01 07:08:19;;;;;;;3.67;0.90;;;15.50;96.70;;;;;;5071041;28;20052;-72
2024/04/01 07:10:47;;;;;;;2.53;0.82;;;15.60;96.70;;;;;;5068036;28;20067;-71
2024/04/01 07:13:15;;;;;;;2.58;0.73;;;15.60;96.70;;;;;;5087439;28;20092;-71
2024/04/01 07:15:44;;;;;;;3.42;0.65;;;15.70;96.70;;;;;;5088246;28;20036;-71
2024/04/01 07:18:15;;;;;;;2.40;0.57;;;15.60;96.70;;;;;;5071955;28;20039;-71
2024/04/01 07:20:43;;;;;;;4.38;0.93;;;15.60;96.70;;;;;;5075647;28;20129;-72
2024/04/01 07:23:11;;;;;;;5.70;1.02;;;15.60;96.70;;;;;;5091966;28;20471;-72
2024/04/01 07:25:38;;;;;;;3.80;0.80;;;15.70;96.70;;;;;;5094455;28;20080;-72
2024/04/01 07:28:07;;;;;;;2.67;0.70;;;15.60;96.70;;;;;;5071047;28;20059;-71
2024/04/01 07:30:35;;;;;;;4.07;1.13;;;15.60;96.70;;;;;;5056060;28;20040;-72
2024/04/01 07:33:04;;;;;;;2.53;0.80;;;15.60;96.70;;;;;;5060491;28;20063;-69
2024/04/01 07:35:34;;;;;;;6.80;1.42;;;15.60;96.70;;;;;;5068801;28;20048;-71
2024/04/01 07:38:02;;;;;;;3.80;0.88;;;15.50;96.70;;;;;;5074970;28;20051;-70
2024/04/01 07:40:31;;;;;;;3.38;1.20;;;15.60;96.70;;;;;;5057104;28;20040;-73
2024/04/01 07:42:59;;;;;;;3.75;0.93;;;15.50;96.70;;;;;;5074013;28;20044;-71
2024/04/01 07:45:27;;;;;;;5.80;1.02;;;15.50;96.70;;;;;;5071609;28;20040;-71
2024/04/01 07:47:55;;;;;;;6.68;0.88;;;15.60;96.70;;;;;;5069627;28;20040;-71
2024/04/01 07:50:25;;;;;;;4.68;1.10;;;15.60;96.70;;;;;;5076372;28;20554;-71
2024/04/01 07:52:55;;;;;;;3.90;1.17;;;15.60;96.70;;;;;;5072028;28;20063;-71
2024/04/01 07:55:23;;;;;;;4.80;0.80;;;15.60;96.70;;;;;;5074988;28;20127;-72
2024/04/01 07:57:52;;;;;;;3.47;0.90;;;15.60;96.70;;;;;;5067475;28;20406;-72
2024/04/01 08:00:20;;;;;;;3.85;0.93;;;15.60;96.70;;;;;;5069067;28;20045;-72
2024/04/01 08:02:47;;;;;;;8.73;1.30;;;15.50;96.70;;;;;;5072325;28;20047;-75
2024/04/01 08:05:15;;;;;;;3.80;1.10;;;15.60;96.70;;;;;;5051381;28;20044;-71
2024/04/01 08:07:42;;;;;;;4.35;1.30;;;15.70;96.70;;;;;;5053178;28;20040;-72
2024/04/01 08:10:10;;;;;;;3.53;1.00;;;15.70;96.70;;;;;;5052740;28;20098;-73
2024/04/01 08:12:38;;;;;;;4.80;1.08;;;15.70;96.70;;;;;;5051154;28;20094;-72
2024/04/01 08:15:06;;;;;;;4.40;1.30;;;15.60;96.70;;;;;;5056643;28;20709;-73
2024/04/01 08:17:33;;;;;;;3.85;1.02;;;15.70;96.70;;;;;;5043756;28;20076;-73
2024/04/01 08:20:00;;;;;;;3.55;1.27;;;15.70;96.70;;;;;;5054629;28;20473;-73
2024/04/01 08:22:27;;;;;;;4.22;1.35;;;15.60;96.70;;;;;;5034804;28;20079;-73
2024/04/01 08:24:55;;;;;;;5.38;1.05;;;15.60;96.70;;;;;;5051038;28;20660;-71
2024/04/01 08:27:24;;;;;;;4.38;1.08;;;15.70;96.70;;;;;;5038063;28;20041;-72
2024/04/01 08:29:51;;;;;;;4.68;0.93;;;15.70;96.70;;;;;;5050588;28;20412;-73
2024/04/01 08:32:18;;;;;;;4.15;0.90;;;15.70;96.70;;;;;;5033907;28;20421;-70
2024/04/01 08:34:46;;;;;;;3.47;0.63;;;15.70;96.70;;;;;;5044587;28;20037;-72
2024/04/01 08:37:12;;;;;;;2.75;0.88;;;15.70;96.70;;;;;;5038592;28;20041;-71
2024/04/01 08:39:40;;;;;;;4.65;0.65;;;15.70;96.70;;;;;;5049583;28;20040;-72
2024/04/01 08:42:10;;;;;;;4.50;0.82;;;15.60;96.70;;;;;;5033282;28;20052;-73
2024/04/01 08:44:42;;;;;;;4.03;1.08;;;15.60;96.70;;;;;;5034302;28;20049;-72
2024/04/01 08:47:10;;;;;;;3.75;0.88;;;15.50;96.70;;;;;;5034597;28;20630;-71
2024/04/01 08:49:45;;;;;;;4.70;0.93;;;15.60;96.70;;;;;;5050319;28;20063;-73
2024/04/01 08:52:13;;;;;;;5.38;0.88;;;15.60;96.70;;;;;;5050145;28;20049;-72
2024/04/01 08:54:41;;;;;;;2.47;0.80;;;15.70;96.70;;;;;;5050717;28;20056;-72
2024/04/01 08:57:10;;;;;;;6.03;0.93;;;15.60;96.70;;;;;;5031410;28;20058;-73
2024/04/01 08:59:38;;;;;;;3.60;1.00;;;15.60;96.70;;;;;;5050341;28;20818;-71
2024/04/01 09:02:06;;;;;;;3.65;1.02;;;15.70;96.70;;;;;;5050280;28;20122;-72
2024/04/01 09:04:33;;;;;;;5.65;1.20;;;15.70;96.70;;;;;;5050110;28;20045;-73
2024/04/01 09:07:00;;;;;;;3.47;1.33;;;15.70;96.70;;;;;;5049956;28;20052;-72
2024/04/01 09:09:27;;;;;;;2.53;1.00;;;15.70;96.70;;;;;;5049600;28;20055;-72
2024/04/01 09:11:56;;;;;;;2.97;0.80;;;15.70;96.70;;;;;;5050828;28;20127;-77
2024/04/01 09:14:23;;;;;;;7.30;1.05;;;15.80;96.70;;;;;;5050474;28;20052;-72
2024/04/01 09:16:53;;;;;;;3.50;1.27;;;15.80;96.70;;;;;;5049907;28;20514;-73
2024/04/01 09:19:22;;;;;;;3.75;0.75;;;15.90;96.70;;;;;;5049592;28;20094;-73
2024/04/01 09:21:51;;;;;;;3.55;0.88;;;15.70;96.70;;;;;;5033425;28;20064;-70
2024/04/01 09:24:20;;;;;;;2.35;0.90;;;15.80;96.70;;;;;;5033428;28;20145;-73
2024/04/01 09:26:48;;;;;;;3.20;0.90;;;15.80;96.70;;;;;;5033541;28;20064;-73
2024/04/01 09:29:16;;;;;;;3.17;1.35;;;15.80;96.70;;;;;;5064749;28;20074;-71
2024/04/01 09:31:45;;;;;;;5.22;1.20;;;15.80;96.70;;;;;;5069926;28;20574;-72
2024/04/01 09:34:15;;;;;;;5.90;1.48;;;15.80;96.70;;;;;;5069213;28;20055;-73
2024/04/01 09:36:43;;;;;;;3.03;1.50;;;15.80;96.70;;;;;;5069832;28;20538;-73
2024/04/01 09:39:10;;;;;;;2.92;1.02;;;15.80;96.70;;;;;;5070043;28;20055;-72
2024/04/01 09:41:38;;;;;;;4.78;1.42;;;15.90;96.70;;;;;;5046691;28;20497;-72
2024/04/01 09:44:09;;;;;;;3.78;1.30;;;15.90;96.70;;;;;;5049988;28;20044;-72
2024/04/01 09:46:39;;;;;;;5.43;3.38;;;15.80;96.70;;;;;;5069634;28;20081;-72
2024/04/01 09:49:06;;;;;;;7.63;2.78;;;15.80;96.70;;;;;;5052588;28;20405;-72
2024/04/01 09:51:35;;;;;;;3.63;1.75;;;15.70;96.70;;;;;;5052608;28;20093;-70
2024/04/01 09:54:02;;;;;;;4.68;1.08;;;15.70;96.70;;;;;;5068550;28;20068;-72
2024/04/01 09:57:06;;;;;;;4.80;1.40;;;15.80;96.70;;;;;;5052116;28;20370;-87
2024/04/01 10:00:04;;;;;;;3.55;1.48;;;15.80;96.70;;;;;;5001640;28;20581;-73
2024/04/01 10:03:22;;;;;;;4.22;1.30;;;15.90;96.70;;;;;;5070401;28;20056;-73
2024/04/01 10:06:19;;;;;;;3.38;1.33;;;15.90;96.70;;;;;;5051609;28;20062;-72
2024/04/01 10:09:20;;;;;;;6.13;2.20;;;16.00;96.70;;;;;;5052691;28;20054;-72
2024/04/01 10:12:07;;;;;;;5.97;2.80;;;15.90;96.70;;;;;;5044784;28;20047;-71
2024/04/01 10:15:22;;;;;;;6.47;2.13;;;15.90;96.70;;;;;;5051721;28;20070;-71
2024/04/01 10:18:10;;;;;;;6.47;3.22;;;15.80;96.70;;;;;;5002637;28;20041;-70
2024/04/01 10:20:51;;;;;;;;;;;15.70;96.70;;;;;;5000052;28;20663;-71
2024/04/01 10:23:49;;;;;;;5.60;3.47;;;15.60;96.70;;;;;;5041735;28;19923;-70
2024/04/01 10:26:58;;;;;;;7.60;4.15;;;15.50;96.70;;;;;;5048986;28;20057;-71
2024/04/01 10:30:11;;;;;;;3.72;2.17;;;15.60;96.70;;;;;;5044708;28;20696;-72
2024/04/01 10:33:16;;;;;;;8.57;5.15;;;15.70;96.70;;;;;;5044614;28;20071;-74
2024/04/01 10:36:05;;;;;;;10.38;5.22;;;15.80;96.70;;;;;;5042250;28;20055;-71
2024/04/01 10:39:10;;;;;;;11.50;4.95;;;16.00;96.70;;;;;;5027533;28;20055;-72
2024/04/01 10:42:12;;;;;;;8.32;4.07;;;16.00;96.70;;;;;;5021139;28;20512;-73
2024/04/01 10:45:19;;;;;;;7.50;4.88;;;16.10;96.70;;;;;;5040733;28;20079;-73
2024/04/01 10:48:15;;;;;;;14.07;7.93;;;16.10;96.70;;;;;;5031036;28;20060;-73
2024/04/01 10:51:24;;;;;;;14.93;8.32;;;16.10;96.70;;;;;;5025928;28;20070;-73
2024/04/01 10:54:03;;;;;;;13.20;6.93;;;16.10;96.70;;;;;;5040964;28;20079;-73
2024/04/01 10:57:10;;;;;;;10.27;6.22;;;16.10;96.70;;;;;;5047782;28;20056;-73
2024/04/01 11:00:27;;;;;;;7.43;5.03;;;16.10;96.70;;;;;;5043370;28;20040;-74
2024/04/01 11:03:24;;;;;;;7.37;3.97;;;16.20;96.70;;;;;;5057487;28;20048;-73
2024/04/01 11:06:27;;;;;;;7.00;4.00;;;16.30;96.70;;;;;;5057844;28;20043;-73
2024/04/01 11:09:13;;;;;;;8.10;3.80;;;16.30;96.70;;;;;;5022151;28;20052;-74
2024/04/01 11:11:52;;;;;;;14.55;9.40;;;16.40;96.70;;;;;;5030310;28;20071;-73
2024/04/01 11:14:20;;;;;;;9.57;5.22;;;16.30;96.70;;;;;;5041112;28;20040;-72
2024/04/01 11:16:53;;;;;;;11.77;7.15;;;16.40;96.70;;;;;;5042429;28;20531;-71
2024/04/01 11:19:38;;;;;;;11.07;6.10;;;16.50;96.70;;;;;;5030274;28;20164;-70
2024/04/01 11:22:13;;;;;;;8.80;5.22;;;16.50;96.70;;;;;;5039972;28;20072;-72
2024/04/01 11:24:49;;;;;;;6.40;3.67;;;16.60;96.70;;;;;;5030000;28;20810;-69
2024/04/01 11:27:46;;;;;;;7.60;3.13;;;16.60;96.70;;;;;;5046592;28;20101;-71
2024/04/01 11:30:21;;;;;;;;;;;16.50;96.70;;;;;;5027388;28;20069;-71
2024/04/01 11:32:55;;;;;;;8.07;3.47;;;16.70;96.70;;;;;;5027546;28;20123;-71
2024/04/01 11:35:39;;;;;;;6.47;3.90;;;16.70;96.70;;;;;;5031294;28;20125;-71
2024/04/01 11:38:23;;;;;;;8.10;3.58;;;16.70;96.70;;;;;;5041716;28;20055;-71
2024/04/01 11:40:54;;;;;;;8.30;3.67;;;16.70;96.70;;;;;;5047112;28;20036;-71
2024/04/01 11:43:23;;;;;;;5.50;2.25;;;16.80;96.70;;;;;;5045991;28;20048;-71
2024/04/01 11:45:52;;;;;;;5.80;2.65;;;16.80;96.70;;;;;;5026577;28;20567;-73
2024/04/01 11:48:22;;;;;;;5.57;3.25;;;16.90;96.70;;;;;;5030312;28;20146;-73
2024/04/01 11:50:50;;;;;;;17.80;3.67;;;16.90;96.70;;;;;;5030494;28;20152;-79
2024/04/01 11:53:19;;;;;;;14.57;3.40;;;16.80;96.70;;;;;;5046890;28;20421;-73
2024/04/01 11:55:58;;;;;;;126.32;9.55;;;17.00;96.70;;;;;;5030908;28;20044;-71
2024/04/01 11:58:27;;;;;;;44.90;4.68;;;16.90;96.70;;;;;;5046277;28;20078;-75
2024/04/01 12:00:55;;;;;;;13.82;2.60;;;16.90;96.70;;;;;;5029345;28;20131;-74
2024/04/01 12:03:40;;;;;;;11.93;3.88;;;16.90;96.70;;;;;;5030383;28;20045;-73
2024/04/01 12:06:13;;;;;;;8.20;2.63;;;16.90;96.70;;;;;;5031626;28;20140;-74
2024/04/01 12:08:41;;;;;;;3.78;2.40;;;16.80;96.70;;;;;;5050336;28;20068;-72
2024/04/01 12:11:08;;;;;;;6.03;2.67;;;16.90;96.70;;;;;;5033602;28;20048;-74
2024/04/01 12:13:40;;;;;;;5.47;1.70;;;16.80;96.70;;;;;;5050510;28;20491;-73
2024/04/01 12:16:08;;;;;;;5.50;3.30;;;16.90;96.70;;;;;;5050469;28;20048;-74
2024/04/01 12:18:44;;;;;;;7.68;3.90;;;16.90;96.70;;;;;;5033055;28;20101;-72
2024/04/01 12:21:13;;;;;;;6.88;3.63;;;16.90;96.70;;;;;;5044136;28;20040;-72
2024/04/01 12:23:42;;;;;;;6.60;2.90;;;17.00;96.70;;;;;;5033520;28;20044;-72
2024/04/01 12:26:14;;;;;;;4.32;1.50;;;17.00;96.70;;;;;;5050669;28;20045;-72
2024/04/01 12:28:43;;;;;;;6.35;1.75;;;16.80;96.70;;;;;;5059034;28;20068;-73
2024/04/01 12:31:13;;;;;;;6.15;1.33;;;16.80;96.70;;;;;;5027579;28;20048;-73
2024/04/01 12:33:44;;;;;;;4.53;1.75;;;16.80;96.70;;;;;;5056601;28;20478;-73
2024/04/01 12:36:13;;;;;;;5.38;1.60;;;16.90;96.70;;;;;;5062456;28;20036;-72
2024/04/01 12:38:42;;;;;;;4.80;1.90;;;16.90;96.70;;;;;;5038270;28;20048;-73
2024/04/01 12:41:10;;;;;;;9.95;4.63;;;16.80;96.70;;;;;;5050531;28;20131;-72
2024/04/01 12:43:40;;;;;;;7.00;3.38;;;16.90;96.70;;;;;;5029834;28;20662;-73
2024/04/01 12:46:11;;;;;;;7.68;3.53;;;16.90;96.70;;;;;;5040344;28;20071;-71
2024/04/01 12:48:40;;;;;;;12.40;4.20;;;17.00;96.70;;;;;;5056055;28;20050;-72
2024/04/01 12:51:12;;;;;;;11.05;5.28;;;17.00;96.70;;;;;;5035602;28;20055;-72
2024/04/01 12:53:57;;;;;;;7.00;3.20;;;16.80;96.70;;;;;;5043373;28;20071;-71
2024/04/01 12:56:37;;;;;;;5.95;2.20;;;16.80;96.70;;;;;;5052811;28;20052;-72
2024/04/01 12:59:18;;;;;;;5.00;2.35;;;16.80;96.70;;;;;;5037029;28;20529;-71
2024/04/01 13:02:02;;;;;;;10.48;3.10;;;16.90;96.70;;;;;;5065781;28;20055;-72
2024/04/01 13:04:46;;;;;;;7.68;2.20;;;16.90;96.70;;;;;;5053568;28;20048;-74
2024/04/01 13:07:33;;;;;;;5.55;2.30;;;17.00;96.70;;;;;;5035104;28;20044;-72